createdAt,value
2023-04-05T00:00:20.394Z,99793.85
2023-04-05T00:02:49.597Z,99786.46
2023-04-05T00:05:30.042Z,99775.20
2023-04-05T00:08:01.961Z,99770.10
2023-04-05T00:10:31.488Z,99769.23
2023-04-05T00:13:00.447Z,99766.23
2023-04-05T00:15:33.877Z,99764.99
2023-04-05T00:18:04.054Z,99773.27
2023-04-05T00:20:33.706Z,99782.07
2023-04-05T00:23:02.465Z,99788.39
2023-04-05T00:25:30.872Z,99789.63
2023-04-05T00:28:01.047Z,99794.21
2023-04-05T00:30:30.317Z,99794.55
2023-04-05T00:32:59.208Z,99790.34
2023-04-05T00:35:28.892Z,99775.55
2023-04-05T00:37:57.399Z,99759.55
2023-04-05T00:40:26.900Z,99754.96
2023-04-05T00:42:55.513Z,99746.68
2023-04-05T00:45:24.099Z,99745.29
2023-04-05T00:47:52.641Z,99751.27
2023-04-05T00:50:21.723Z,99749.32
2023-04-05T00:52:55.826Z,99745.30
2023-04-05T00:55:25.178Z,99749.15
2023-04-05T00:57:55.984Z,99747.76
2023-04-05T01:00:24.622Z,99745.81
2023-04-05T01:02:55.865Z,99742.30
2023-04-05T01:05:33.510Z,99734.20
2023-04-05T01:08:13.497Z,99731.04
2023-04-05T01:10:44.619Z,99727.50
2023-04-05T01:13:12.782Z,99725.56
2023-04-05T01:15:41.486Z,99720.48
2023-04-05T01:18:11.416Z,99716.80
2023-04-05T01:20:43.295Z,99708.19
2023-04-05T01:23:34.380Z,99709.58
2023-04-05T01:26:36.688Z,99710.83
2023-04-05T01:29:20.155Z,99705.01
2023-04-05T01:31:51.986Z,99705.19
2023-04-05T01:34:44.830Z,99705.89
2023-04-05T01:37:13.570Z,99705.20
2023-04-05T01:39:42.178Z,99704.67
2023-04-05T01:42:10.457Z,99706.62
2023-04-05T01:44:39.164Z,99703.45
2023-04-05T01:47:07.245Z,99705.40
2023-04-05T01:49:36.528Z,99703.64
2023-04-05T01:52:04.796Z,99698.01
2023-04-05T01:54:37.832Z,99694.48
2023-04-05T01:57:06.292Z,99682.18
2023-04-05T01:59:34.442Z,99678.84
2023-04-05T02:02:02.474Z,99678.14
2023-04-05T02:04:32.202Z,99677.45
2023-04-05T02:07:04.709Z,99674.11
2023-04-05T02:09:33.335Z,99666.90
2023-04-05T02:12:01.770Z,99667.26
2023-04-05T02:14:29.934Z,99665.14
2023-04-05T02:16:58.723Z,99657.93
2023-04-05T02:19:26.991Z,99654.94
2023-04-05T02:21:57.445Z,99656.33
2023-04-05T02:24:26.558Z,99663.90
2023-04-05T02:26:54.539Z,99660.20
2023-04-05T02:29:22.642Z,99663.72
2023-04-05T02:31:50.929Z,99657.20
2023-04-05T02:34:19.256Z,99658.60
2023-04-05T02:36:47.350Z,99663.89
2023-04-05T02:39:15.789Z,99658.98
2023-04-05T02:41:44.214Z,99660.91
2023-04-05T02:44:13.477Z,99662.14
2023-04-05T02:46:42.069Z,99663.20
2023-04-05T02:49:10.325Z,99665.48
2023-04-05T02:51:38.871Z,99667.58
2023-04-05T02:54:09.785Z,99674.10
2023-04-05T02:56:38.155Z,99670.92
2023-04-05T02:59:11.605Z,99669.37
2023-04-05T03:01:44.469Z,99663.73
2023-04-05T03:04:19.564Z,99669.17
2023-04-05T03:06:51.139Z,99669.72
2023-04-05T03:09:22.682Z,99666.55
2023-04-05T03:11:54.188Z,99667.07
2023-04-05T03:20:58.770Z,99680.79
2023-04-05T03:24:11.632Z,99688.54
2023-04-05T03:26:45.756Z,99687.11
2023-04-05T03:29:15.751Z,99676.74
2023-04-05T03:31:45.689Z,99667.23
2023-04-05T03:34:15.633Z,99665.99
2023-04-05T03:36:48.015Z,99664.77
2023-04-05T03:39:25.162Z,99665.80
2023-04-05T03:41:54.065Z,99662.30
2023-04-05T03:44:23.832Z,99669.16
2023-04-05T03:46:52.220Z,99664.42
2023-04-05T03:49:21.078Z,99666.73
2023-04-05T03:51:49.223Z,99668.83
2023-04-05T03:54:18.611Z,99666.02
2023-04-05T03:56:47.401Z,99669.89
2023-04-05T03:59:19.806Z,99666.90
2023-04-05T04:01:48.726Z,99667.77
2023-04-05T04:04:17.800Z,99672.88
2023-04-05T04:06:51.879Z,99671.99
2023-04-05T04:09:24.998Z,99670.25
2023-04-05T04:11:53.182Z,99670.41
2023-04-05T04:14:24.935Z,99668.13
2023-04-05T04:17:36.315Z,99657.23
2023-04-05T04:20:27.848Z,99657.05
2023-04-05T04:23:14.793Z,99650.91
2023-04-05T04:25:55.713Z,99649.33
2023-04-05T04:28:39.772Z,99647.90
2023-04-05T04:31:24.194Z,99652.65
2023-04-05T04:34:18.885Z,99650.55
2023-04-05T04:37:01.569Z,99650.89
2023-04-05T04:40:06.505Z,99656.00
2023-04-05T04:42:58.853Z,99655.29
2023-04-05T04:46:06.701Z,99660.71
2023-04-05T04:48:55.276Z,99659.31
2023-04-05T04:51:33.695Z,99661.63
2023-04-05T04:54:02.228Z,99662.33
2023-04-05T04:56:31.575Z,99660.04
2023-04-05T04:59:01.078Z,99659.52
2023-04-05T05:01:34.247Z,99658.27
2023-04-05T05:04:04.536Z,99657.05
2023-04-05T05:06:37.879Z,99656.17
2023-04-05T05:09:06.637Z,99656.70
2023-04-05T05:11:40.899Z,99648.09
2023-04-05T05:14:11.653Z,99641.59
2023-04-05T05:16:40.330Z,99645.63
2023-04-05T05:19:11.460Z,99650.02
2023-04-05T05:21:47.123Z,99649.49
2023-04-05T05:24:22.688Z,99645.45
2023-04-05T05:26:51.327Z,99644.39
2023-04-05T05:29:21.023Z,99640.88
2023-04-05T05:31:51.341Z,99638.95
2023-04-05T05:34:19.908Z,99631.92
2023-04-05T05:37:01.776Z,99629.10
2023-04-05T05:39:30.344Z,99633.15
2023-04-05T05:41:59.125Z,99627.50
2023-04-05T05:44:28.896Z,99625.20
2023-04-05T05:46:58.786Z,99629.23
2023-04-05T05:49:27.245Z,99630.84
2023-04-05T05:51:59.035Z,99638.92
2023-04-05T05:54:27.768Z,99635.23
2023-04-05T05:56:56.103Z,99633.49
2023-04-05T05:59:25.666Z,99639.65
2023-04-05T06:01:55.397Z,99632.09
2023-04-05T06:04:24.786Z,99633.14
2023-04-05T06:06:54.820Z,99635.44
2023-04-05T06:09:23.520Z,99640.54
2023-04-05T06:11:56.306Z,99637.54
2023-04-05T06:14:25.621Z,99636.14
2023-04-05T06:16:53.861Z,99641.58
2023-04-05T06:19:22.590Z,99642.10
2023-04-05T06:21:50.947Z,99639.11
2023-04-05T06:24:19.180Z,99646.15
2023-04-05T06:26:47.713Z,99636.27
2023-04-05T06:29:20.698Z,99636.80
2023-04-05T06:31:49.080Z,99633.98
2023-04-05T06:34:17.379Z,99630.48
2023-04-05T06:36:47.594Z,99630.47
2023-04-05T06:39:16.872Z,99633.83
2023-04-05T06:41:45.126Z,99635.77
2023-04-05T06:44:13.481Z,99628.36
2023-04-05T06:46:41.908Z,99626.27
2023-04-05T06:49:10.381Z,99632.23
2023-04-05T06:51:39.136Z,99630.83
2023-04-05T06:54:08.701Z,99631.35
2023-04-05T06:56:39.128Z,99634.34
2023-04-05T06:59:07.654Z,99636.46
2023-04-05T07:01:37.569Z,99641.91
2023-04-05T07:04:07.141Z,99640.86
2023-04-05T07:06:39.193Z,99633.64
2023-04-05T07:09:09.228Z,99630.48
2023-04-05T07:11:40.193Z,99628.73
2023-04-05T07:14:08.348Z,99632.42
2023-04-05T07:16:36.570Z,99624.33
2023-04-05T07:19:06.323Z,99618.88
2023-04-05T07:21:35.000Z,99614.48
2023-04-05T07:24:06.651Z,99613.77
2023-04-05T07:26:36.126Z,99611.98
2023-04-05T07:29:04.997Z,99610.95
2023-04-05T07:31:35.092Z,99608.33
2023-04-05T07:34:04.274Z,99606.41
2023-04-05T07:36:32.555Z,99605.00
2023-04-05T07:39:01.041Z,99602.38
2023-04-05T07:41:33.154Z,99599.41
2023-04-05T07:44:06.016Z,99600.47
2023-04-05T07:46:35.557Z,99603.80
2023-04-05T07:49:04.591Z,99605.20
2023-04-05T07:51:36.483Z,99604.48
2023-04-05T07:54:08.219Z,99602.55
2023-04-05T07:56:39.712Z,99604.45
2023-04-05T07:59:09.055Z,99605.85
2023-04-05T08:01:37.518Z,99606.73
2023-04-05T08:04:06.120Z,99607.95
2023-04-05T08:06:34.597Z,99609.20
2023-04-05T08:09:05.935Z,99617.48
2023-04-05T08:11:35.638Z,99620.80
2023-04-05T08:14:08.104Z,99622.20
2023-04-05T08:16:36.534Z,99618.85
2023-04-05T08:19:04.712Z,99623.05
2023-04-05T08:21:32.984Z,99620.92
2023-04-05T08:24:02.485Z,99620.05
2023-04-05T08:26:31.283Z,99623.20
2023-04-05T08:28:59.499Z,99625.64
2023-04-05T08:31:28.832Z,99627.40
2023-04-05T08:33:58.059Z,99621.25
2023-04-05T08:36:27.461Z,99622.69
2023-04-05T08:38:55.942Z,99622.02
2023-04-05T08:41:24.207Z,99622.19
2023-04-05T08:48:04.723Z,99618.98
2023-04-05T08:50:33.514Z,99621.44
2023-04-05T08:53:01.653Z,99616.31
2023-04-05T08:55:29.801Z,99617.02
2023-04-05T08:57:59.364Z,99614.02
2023-04-05T09:00:27.606Z,99609.25
2023-04-05T09:02:59.218Z,99609.93
2023-04-05T09:05:27.495Z,99615.02
2023-04-05T09:07:58.259Z,99617.61
2023-04-05T09:10:26.640Z,99614.12
2023-04-05T09:12:54.803Z,99609.19
2023-04-05T09:15:24.534Z,99609.16
2023-04-05T09:17:54.985Z,99594.31
2023-04-05T09:20:23.896Z,99594.11
2023-04-05T09:22:52.126Z,99584.93
2023-04-05T09:25:32.704Z,99586.13
2023-04-05T09:28:00.978Z,99578.67
2023-04-05T09:30:29.493Z,99577.27
2023-04-05T09:32:58.510Z,99582.89
2023-04-05T09:35:31.090Z,99589.71
2023-04-05T09:38:01.651Z,99589.80
2023-04-05T09:40:47.797Z,99586.20
2023-04-05T09:43:39.058Z,99583.98
2023-04-05T09:46:07.968Z,99586.08
2023-04-05T09:48:47.654Z,99583.16
2023-04-05T09:51:16.729Z,99581.81
2023-04-05T09:54:01.127Z,99583.21
2023-04-05T09:56:31.830Z,99579.81
2023-04-05T09:59:01.945Z,99582.25
2023-04-05T10:01:33.742Z,99582.27
2023-04-05T10:04:03.179Z,99577.00
2023-04-05T10:06:39.685Z,99584.99
2023-04-05T10:09:08.904Z,99580.80
2023-04-05T10:11:40.012Z,99576.42
2023-04-05T10:14:12.633Z,99575.72
2023-04-05T10:16:58.418Z,99568.70
2023-04-05T10:19:29.214Z,99567.61
2023-04-05T10:21:57.495Z,99564.94
2023-04-05T10:24:38.977Z,99572.49
2023-04-05T10:27:42.910Z,99576.71
2023-04-05T10:30:11.700Z,99574.89
2023-04-05T10:32:59.022Z,99568.68
2023-04-05T10:35:30.655Z,99573.39
2023-04-05T10:38:22.170Z,99576.88
2023-04-05T10:40:52.501Z,99575.30
2023-04-05T10:43:25.878Z,99576.55
2023-04-05T10:45:55.718Z,99578.02
2023-04-05T10:48:49.455Z,99573.52
2023-04-05T10:51:18.110Z,99573.16
2023-04-05T10:53:47.957Z,99573.71
2023-04-05T10:56:20.417Z,99571.43
2023-04-05T10:58:48.578Z,99571.84
2023-04-05T11:01:17.729Z,99570.48
2023-04-05T11:03:51.649Z,99565.73
2023-04-05T11:06:30.552Z,99570.45
2023-04-05T11:09:12.144Z,99574.00
2023-04-05T11:11:43.141Z,99577.08
2023-04-05T11:14:25.949Z,99583.08
2023-04-05T11:16:57.004Z,99584.31
2023-04-05T11:19:44.423Z,99581.83
2023-04-05T11:22:13.494Z,99584.20
2023-04-05T11:24:53.978Z,99586.44
2023-04-05T11:27:32.917Z,99590.49
2023-04-05T11:30:01.966Z,99583.52
2023-04-05T11:32:45.303Z,99587.20
2023-04-05T11:35:23.685Z,99585.89
2023-04-05T11:38:01.310Z,99581.14
2023-04-05T11:40:33.821Z,99582.42
2023-04-05T11:43:10.206Z,99581.77
2023-04-05T11:45:39.510Z,99580.14
2023-04-05T11:48:12.131Z,99582.00
2023-04-05T11:50:45.187Z,99579.72
2023-04-05T11:53:15.598Z,99578.66
2023-04-05T11:55:46.233Z,99573.92
2023-04-05T11:58:24.258Z,99569.60
2023-04-05T12:00:59.992Z,99576.73
2023-04-05T12:03:29.905Z,99580.54
2023-04-05T12:05:59.536Z,99575.87
2023-04-05T12:08:39.593Z,99579.13
2023-04-05T12:11:09.924Z,99574.42
2023-04-05T12:13:38.893Z,99566.64
2023-04-05T12:16:09.391Z,99566.38
2023-04-05T12:18:37.890Z,99562.02
2023-04-05T12:21:10.029Z,99562.02
2023-04-05T12:23:38.381Z,99558.14
2023-04-05T12:26:06.850Z,99554.44
2023-04-05T12:28:56.017Z,99546.91
2023-04-05T12:31:44.164Z,99545.50
2023-04-05T12:34:14.192Z,99539.11
2023-04-05T12:36:45.426Z,99532.75
2023-04-05T12:39:16.467Z,99530.27
2023-04-05T12:41:45.124Z,99527.76
2023-04-05T12:44:16.311Z,99529.31
2023-04-05T12:46:45.720Z,99522.18
2023-04-05T12:49:18.009Z,99522.50
2023-04-05T12:51:46.677Z,99525.20
2023-04-05T12:54:23.646Z,99516.62
2023-04-05T12:56:55.388Z,99518.00
2023-04-05T12:59:23.997Z,99512.92
2023-04-05T13:01:52.388Z,99513.63
2023-04-05T13:04:23.133Z,99512.06
2023-04-05T13:06:52.614Z,99512.14
2023-04-05T13:09:20.963Z,99504.42
2023-04-05T13:11:48.924Z,99503.59
2023-04-05T13:14:18.040Z,99505.47
2023-04-05T13:16:46.254Z,99504.73
2023-04-05T13:19:14.302Z,99505.98
2023-04-05T13:21:42.785Z,99508.08
2023-04-05T13:24:12.903Z,99515.46
2023-04-05T13:26:41.852Z,99520.83
2023-04-05T13:29:10.004Z,99519.36
2023-04-05T13:31:38.262Z,99512.42
2023-04-05T13:34:06.760Z,99507.41
2023-04-05T13:36:34.826Z,99499.20
2023-04-05T13:39:07.049Z,99490.89
2023-04-05T13:41:35.439Z,99493.20
2023-04-05T13:44:06.649Z,99493.69
2023-04-05T13:46:35.772Z,99492.80
2023-04-05T13:49:04.006Z,99492.99
2023-04-05T13:51:34.711Z,99485.30
2023-04-05T13:54:02.774Z,99486.77
2023-04-05T13:56:34.891Z,99484.30
2023-04-05T13:59:03.165Z,99488.42
2023-04-05T14:01:31.619Z,99500.13
2023-04-05T14:04:01.304Z,99500.44
2023-04-05T14:06:30.310Z,99500.73
2023-04-05T14:08:58.642Z,99500.58
2023-04-05T14:11:28.635Z,99498.41
2023-04-05T14:13:56.879Z,99504.75
2023-04-05T14:16:25.101Z,99501.21
2023-04-05T14:18:57.667Z,99494.27
2023-04-05T14:21:26.426Z,99489.83
2023-04-05T14:23:57.861Z,99488.95
2023-04-05T14:26:26.806Z,99483.30
2023-04-05T14:28:55.067Z,99482.02
2023-04-05T14:31:26.580Z,99477.63
2023-04-05T14:33:55.585Z,99476.94
2023-04-05T14:36:23.715Z,99477.48
2023-04-05T14:38:56.580Z,99478.41
2023-04-05T14:41:27.207Z,99479.73
2023-04-05T14:43:55.968Z,99484.40
2023-04-05T14:46:24.186Z,99485.24
2023-04-05T14:48:52.730Z,99489.77
2023-04-05T14:51:20.897Z,99486.20
2023-04-05T14:53:49.163Z,99488.84
2023-04-05T14:56:18.205Z,99485.31
2023-04-05T14:58:46.528Z,99484.80
2023-04-05T15:01:14.579Z,99484.84
2023-04-05T15:03:44.228Z,99483.30
2023-04-05T15:06:12.783Z,99497.63
2023-04-05T15:08:41.326Z,99502.38
2023-04-05T15:11:12.760Z,99510.02
2023-04-05T15:13:41.194Z,99512.06
2023-04-05T15:16:10.769Z,99511.92
2023-04-05T15:18:40.232Z,99509.59
2023-04-05T15:21:08.621Z,99507.30
2023-04-05T15:23:41.423Z,99504.91
2023-04-05T15:26:09.526Z,99497.98
2023-04-05T15:28:37.683Z,99500.41
2023-04-05T15:31:06.337Z,99504.33
2023-04-05T15:33:34.549Z,99493.95
2023-04-05T15:36:03.143Z,99491.27
2023-04-05T15:38:32.622Z,99494.12
2023-04-05T15:42:18.710Z,99503.56
2023-04-05T15:44:46.961Z,99498.73
2023-04-05T15:47:15.369Z,99507.98
2023-04-05T15:49:44.640Z,99518.13
2023-04-05T15:52:12.971Z,99522.80
2023-04-05T15:54:44.409Z,99524.63
2023-04-05T15:57:12.720Z,99517.27
2023-04-05T15:59:41.247Z,99509.04
2023-04-05T16:02:09.831Z,99501.59
2023-04-05T16:04:39.407Z,99500.48
2023-04-05T16:07:09.201Z,99488.35
2023-04-05T16:09:39.691Z,99491.54
2023-04-05T16:12:07.829Z,99496.13
2023-04-05T16:14:38.730Z,99499.86
2023-04-05T16:17:07.271Z,99502.61
2023-04-05T16:19:35.631Z,99504.27
2023-04-05T16:22:03.872Z,99502.08
2023-04-05T16:24:33.359Z,99501.54
2023-04-05T16:27:02.727Z,99500.33
2023-04-05T16:29:31.794Z,99498.95
2023-04-05T16:32:00.095Z,99500.34
2023-04-05T16:34:28.739Z,99494.10
2023-04-05T16:36:57.150Z,99495.89
2023-04-05T16:39:25.402Z,99495.23
2023-04-05T16:41:54.517Z,99494.56
2023-04-05T16:44:22.977Z,99496.75
2023-04-05T16:46:53.937Z,99493.77
2023-04-05T16:49:22.429Z,99497.14
2023-04-05T16:51:51.013Z,99502.98
2023-04-05T16:54:19.426Z,99497.50
2023-04-05T16:56:47.568Z,99500.42
2023-04-05T16:59:16.350Z,99498.64
2023-04-05T17:01:44.935Z,99497.77
2023-04-05T17:04:14.252Z,99499.62
2023-04-05T17:06:42.584Z,99500.84
2023-04-05T17:09:10.748Z,99506.44
2023-04-05T17:11:38.958Z,99508.89
2023-04-05T17:14:12.858Z,99508.87
2023-04-05T17:16:41.128Z,99509.60
2023-04-05T17:19:09.168Z,99517.89
2023-04-05T17:21:39.040Z,99519.09
2023-04-05T17:24:08.619Z,99521.15
2023-04-05T17:26:37.158Z,99525.15
2023-04-05T17:29:05.608Z,99529.77
2023-04-05T17:31:34.872Z,99528.20
2023-04-05T17:34:03.713Z,99525.36
2023-04-05T17:36:33.401Z,99522.67
2023-04-05T17:39:01.462Z,99521.88
2023-04-05T17:41:29.998Z,99520.09
2023-04-05T17:43:58.628Z,99521.83
2023-04-05T17:46:40.165Z,99518.48
2023-04-05T17:49:09.693Z,99518.52
2023-04-05T17:51:38.878Z,99515.17
2023-04-05T17:54:07.206Z,99518.34
2023-04-05T17:56:36.646Z,99512.90
2023-04-05T17:59:06.335Z,99515.33
2023-04-05T18:01:36.426Z,99517.54
2023-04-05T18:04:06.626Z,99511.27
2023-04-05T18:06:35.983Z,99518.54
2023-04-05T18:09:05.617Z,99516.96
2023-04-05T18:11:34.215Z,99514.42
2023-04-05T18:14:03.396Z,99515.55
2023-04-05T18:16:39.074Z,99515.56
2023-04-05T18:19:08.639Z,99512.70
2023-04-05T18:21:36.936Z,99513.08
2023-04-05T18:24:05.691Z,99507.11
2023-04-05T18:26:34.631Z,99509.40
2023-04-05T18:31:33.837Z,99503.61
2023-04-05T18:34:04.998Z,99499.59
2023-04-05T18:36:39.821Z,99501.41
2023-04-05T18:39:08.551Z,99494.39
2023-04-05T18:41:37.043Z,99484.99
2023-04-05T18:44:05.643Z,99485.04
2023-04-05T18:46:34.270Z,99480.02
2023-04-05T18:49:02.561Z,99475.06
2023-04-05T18:51:31.397Z,99475.95
2023-04-05T18:54:00.258Z,99471.59
2023-04-05T18:56:28.826Z,99471.29
2023-04-05T18:58:57.860Z,99467.94
2023-04-05T19:01:26.209Z,99466.49
2023-04-05T19:03:54.579Z,99464.04
2023-04-05T19:06:23.039Z,99460.77
2023-04-05T19:08:52.836Z,99457.87
2023-04-05T19:11:22.185Z,99459.44
2023-04-05T19:13:51.031Z,99461.30
2023-04-05T19:16:19.499Z,99462.11
2023-04-05T19:18:47.926Z,99463.47
2023-04-05T19:21:18.580Z,99461.60
2023-04-05T19:23:48.328Z,99453.73
2023-04-05T19:26:16.511Z,99453.34
2023-04-05T19:28:45.914Z,99457.01
2023-04-05T19:31:14.832Z,99453.79
2023-04-05T19:33:44.444Z,99449.80
2023-04-05T19:36:12.740Z,99447.48
2023-04-05T19:38:41.617Z,99448.17
2023-04-05T19:41:09.895Z,99440.70
2023-04-05T19:43:41.317Z,99435.73
2023-04-05T19:46:12.344Z,99433.66
2023-04-05T19:48:43.304Z,99432.70
2023-04-05T19:51:15.666Z,99427.77
2023-04-05T19:53:50.281Z,99425.41
2023-04-05T19:56:28.563Z,99420.23
2023-04-05T19:58:59.929Z,99417.39
2023-04-05T20:01:37.612Z,99411.39
2023-04-05T20:04:15.653Z,99408.55
2023-04-05T20:06:56.113Z,99404.49
2023-04-05T20:09:26.271Z,99398.68
2023-04-05T20:11:56.785Z,99399.63
2023-04-05T20:14:30.613Z,99391.95
2023-04-05T20:17:00.607Z,99389.38
2023-04-05T20:19:29.995Z,99388.45
2023-04-05T20:22:02.421Z,99382.63
2023-04-05T20:24:30.760Z,99387.15
2023-04-05T20:26:59.482Z,99384.30
2023-04-05T20:29:28.808Z,99381.55
2023-04-05T20:31:57.129Z,99373.40
2023-04-05T20:34:31.068Z,99372.52
2023-04-05T20:37:01.847Z,99371.79
2023-04-05T20:39:31.324Z,99366.98
2023-04-05T20:42:00.896Z,99364.16
2023-04-05T20:44:30.432Z,99365.73
2023-04-05T20:46:58.926Z,99363.79
2023-04-05T20:49:28.286Z,99361.06
2023-04-05T20:51:57.790Z,99347.29
2023-04-05T20:54:26.380Z,99348.41
2023-04-05T20:56:58.855Z,99345.13
2023-04-05T20:59:27.483Z,99342.67
2023-04-05T21:01:56.252Z,99343.46
2023-04-05T21:04:25.036Z,99336.44
2023-04-05T21:06:53.599Z,99333.92
2023-04-05T21:09:21.840Z,99330.79
2023-04-05T21:11:49.992Z,99329.30
2023-04-05T21:14:18.140Z,99325.94
2023-04-05T21:16:46.694Z,99323.42
2023-04-05T21:19:14.891Z,99318.36
2023-04-05T21:21:43.232Z,99312.71
2023-04-05T21:24:11.447Z,99307.45
2023-04-05T21:26:39.627Z,99312.07
2023-04-05T21:29:08.034Z,99310.84
2023-04-05T21:31:38.653Z,99306.38
2023-04-05T21:34:07.075Z,99307.56
2023-04-05T21:36:39.222Z,99307.27
2023-04-05T21:39:08.049Z,99304.79
2023-04-05T21:41:36.971Z,99304.21
2023-04-05T21:44:06.093Z,99304.01
2023-04-05T21:46:34.365Z,99302.06
2023-04-05T21:49:02.635Z,99301.98
2023-04-05T21:51:30.987Z,99302.52
2023-04-05T21:53:59.449Z,99298.09
2023-04-05T21:56:30.834Z,99306.64
2023-04-05T21:58:58.935Z,99302.84
2023-04-05T22:01:27.238Z,99298.67
2023-04-05T22:03:56.723Z,99292.72
2023-04-05T22:06:24.989Z,99299.84
2023-04-05T22:08:54.594Z,99301.59
2023-04-05T22:11:24.936Z,99290.04
2023-04-05T22:13:55.044Z,99287.82
2023-04-05T22:16:23.442Z,99291.47
2023-04-05T22:18:51.996Z,99287.40
2023-04-05T22:21:20.704Z,99282.34
2023-04-05T22:23:48.938Z,99275.27
2023-04-05T22:26:17.096Z,99278.55
2023-04-05T22:28:45.445Z,99270.25
2023-04-05T22:31:14.936Z,99267.96
2023-04-05T22:33:44.202Z,99267.61
2023-04-05T22:36:13.139Z,99269.42
2023-04-05T22:38:43.670Z,99263.03
2023-04-05T22:41:11.816Z,99258.05
2023-04-05T22:43:41.460Z,99262.08
2023-04-05T22:46:10.587Z,99262.92
2023-04-05T22:48:38.818Z,99257.59
2023-04-05T22:51:08.480Z,99265.77
2023-04-05T22:53:36.809Z,99265.79
2023-04-05T22:56:11.212Z,99267.76
2023-04-05T22:58:39.432Z,99262.15
2023-04-05T23:01:13.330Z,99267.05
2023-04-05T23:03:42.235Z,99260.95
2023-04-05T23:06:10.437Z,99256.66
2023-04-05T23:08:38.566Z,99254.60
2023-04-05T23:11:09.479Z,99256.09
2023-04-05T23:13:40.428Z,99250.77
2023-04-05T23:16:08.573Z,99258.69
2023-04-05T23:18:39.748Z,99246.39
2023-04-05T23:21:08.833Z,99241.91
2023-04-05T23:23:37.047Z,99244.36
2023-04-05T23:26:05.944Z,99248.18
2023-04-05T23:28:34.151Z,99242.79
2023-04-05T23:31:02.401Z,99243.07
2023-04-05T23:33:33.608Z,99241.23
2023-04-05T23:36:03.031Z,99236.82
2023-04-05T23:38:32.978Z,99237.79
2023-04-05T23:41:01.112Z,99236.51
2023-04-05T23:43:29.540Z,99243.19
2023-04-05T23:45:57.997Z,99242.08
2023-04-05T23:48:29.116Z,99242.25
2023-04-05T23:50:57.898Z,99240.58
2023-04-05T23:53:26.314Z,99238.00
2023-04-05T23:55:56.939Z,99232.89
2023-04-05T23:58:25.171Z,99228.35
